createdAt,value
2022-09-15T00:01:44.296Z,99158.81
2022-09-15T00:04:46.796Z,99145.16
2022-09-15T00:07:49.016Z,99119.34
2022-09-15T00:11:04.051Z,99098.66
2022-09-15T00:14:08.223Z,99089.69
2022-09-15T00:17:10.999Z,99047.50
2022-09-15T00:20:13.302Z,99071.50
2022-09-15T00:23:17.937Z,99091.34
2022-09-15T00:26:22.989Z,99134.09
2022-09-15T00:29:25.522Z,99128.09
2022-09-15T00:32:28.168Z,99128.84
2022-09-15T00:35:30.764Z,99139.84
2022-09-15T00:38:34.193Z,99153.53
2022-09-15T00:41:39.334Z,99165.38
2022-09-15T00:45:00.208Z,99179.97
2022-09-15T00:48:04.786Z,99183.63
2022-09-15T00:51:10.229Z,99197.84
2022-09-15T00:54:21.986Z,99198.09
2022-09-15T00:57:33.997Z,99198.59
2022-09-15T01:00:36.869Z,99193.72
2022-09-15T01:03:39.477Z,99180.88
2022-09-15T01:06:54.029Z,99194.63
2022-09-15T01:10:00.531Z,99206.81
2022-09-15T01:13:08.749Z,99200.97
2022-09-15T01:16:35.744Z,99201.72
2022-09-15T01:20:29.368Z,99193.28
2022-09-15T01:23:34.361Z,99191.59
2022-09-15T01:26:46.532Z,99202.16
2022-09-15T01:30:18.144Z,99191.91
2022-09-15T01:33:57.295Z,99195.13
2022-09-15T01:37:06.235Z,99191.81
2022-09-15T01:40:10.710Z,99185.84
2022-09-15T01:43:14.992Z,99191.00
2022-09-15T01:46:21.841Z,99193.56
2022-09-15T01:49:30.371Z,99192.94
2022-09-15T01:52:33.712Z,99193.09
2022-09-15T01:55:43.094Z,99201.81
2022-09-15T01:58:45.773Z,99202.81
2022-09-15T02:02:12.701Z,99196.84
2022-09-15T02:05:30.239Z,99209.53
2022-09-15T02:08:52.433Z,99205.84
2022-09-15T02:12:07.855Z,99202.91
2022-09-15T02:15:15.034Z,99204.75
2022-09-15T02:18:30.960Z,99208.87
2022-09-15T02:21:36.380Z,99206.97
2022-09-15T02:24:44.220Z,99212.44
2022-09-15T02:27:52.696Z,99205.84
2022-09-15T02:30:58.492Z,99208.81
2022-09-15T02:34:07.857Z,99208.87
2022-09-15T02:37:11.585Z,99212.91
2022-09-15T02:40:14.017Z,99204.28
2022-09-15T02:43:18.861Z,99201.53
2022-09-15T02:46:22.759Z,99205.84
2022-09-15T02:49:25.305Z,99204.19
2022-09-15T02:52:27.549Z,99197.25
2022-09-15T02:55:30.263Z,99202.06
2022-09-15T02:58:35.688Z,99198.44
2022-09-15T03:01:39.300Z,99199.41
2022-09-15T03:04:42.099Z,99199.41
2022-09-15T03:07:44.921Z,99198.97
2022-09-15T03:10:47.193Z,99202.63
2022-09-15T03:13:54.198Z,99199.97
2022-09-15T03:16:58.344Z,99207.63
2022-09-15T03:20:01.189Z,99203.13
2022-09-15T03:23:03.490Z,99205.16
2022-09-15T03:26:09.130Z,99212.94
2022-09-15T03:29:11.449Z,99210.94
2022-09-15T03:32:14.053Z,99208.13
2022-09-15T03:35:16.356Z,99204.94
2022-09-15T03:38:19.596Z,99197.12
2022-09-15T03:41:21.799Z,99200.47
2022-09-15T03:44:24.662Z,99201.13
2022-09-15T03:58:31.040Z,99204.28
2022-09-15T04:01:35.798Z,99218.41
2022-09-15T04:04:39.116Z,99223.56
2022-09-15T04:07:42.339Z,99218.97
2022-09-15T04:10:45.875Z,99224.19
2022-09-15T04:13:52.662Z,99229.31
2022-09-15T04:16:56.212Z,99227.31
2022-09-15T04:19:58.978Z,99208.03
2022-09-15T04:23:02.452Z,99214.38
2022-09-15T04:26:12.006Z,99227.22
2022-09-15T04:29:16.674Z,99221.56
2022-09-15T04:32:20.787Z,99223.13
2022-09-15T04:35:24.103Z,99234.56
2022-09-15T04:38:26.979Z,99240.69
2022-09-15T04:41:30.565Z,99247.34
2022-09-15T04:44:35.123Z,99253.13
2022-09-15T04:47:38.393Z,99250.22
2022-09-15T04:50:41.176Z,99247.13
2022-09-15T04:53:44.801Z,99235.75
2022-09-15T04:56:49.074Z,99231.63
2022-09-15T04:59:52.315Z,99228.22
2022-09-15T05:02:55.072Z,99215.81
2022-09-15T05:05:58.417Z,99221.50
2022-09-15T05:09:01.334Z,99220.84
2022-09-15T05:12:04.645Z,99232.59
2022-09-15T05:15:07.929Z,99240.31
2022-09-15T05:18:10.771Z,99243.69
2022-09-15T05:21:15.369Z,99252.78
2022-09-15T05:24:18.162Z,99263.50
2022-09-15T05:27:20.656Z,99278.53
2022-09-15T05:30:37.131Z,99285.06
2022-09-15T05:33:40.957Z,99281.03
2022-09-15T05:36:44.101Z,99289.41
2022-09-15T05:39:47.055Z,99303.81
2022-09-15T05:42:51.481Z,99289.31
2022-09-15T05:45:55.354Z,99287.59
2022-09-15T05:48:59.305Z,99294.66
2022-09-15T05:52:03.888Z,99296.00
2022-09-15T05:55:07.455Z,99290.97
2022-09-15T05:58:18.438Z,99287.69
2022-09-15T06:17:39.020Z,99304.16
2022-09-15T06:26:07.553Z,99312.47
2022-09-15T06:29:35.690Z,99301.13
2022-09-15T06:32:48.122Z,99327.34
2022-09-15T06:35:51.796Z,99329.81
2022-09-15T06:38:55.082Z,99324.28
2022-09-15T06:42:02.796Z,99319.12
2022-09-15T06:45:07.132Z,99329.94
2022-09-15T06:48:23.918Z,99329.31
2022-09-15T06:51:31.414Z,99330.44
2022-09-15T06:54:33.988Z,99331.72
2022-09-15T06:57:37.067Z,99325.00
2022-09-15T07:00:39.604Z,99338.16
2022-09-15T07:03:44.485Z,99336.41
2022-09-15T07:07:07.190Z,99329.06
2022-09-15T07:10:35.017Z,99340.16
2022-09-15T07:13:40.215Z,99339.00
2022-09-15T07:16:43.833Z,99344.59
2022-09-15T07:20:19.210Z,99346.31
2022-09-15T07:23:24.133Z,99357.94
2022-09-15T07:26:34.373Z,99353.97
2022-09-15T07:30:17.626Z,99355.97
2022-09-15T07:33:27.696Z,99361.69
2022-09-15T07:40:26.052Z,99365.34
2022-09-15T07:43:34.388Z,99367.19
2022-09-15T07:47:02.131Z,99372.81
2022-09-15T08:12:23.792Z,99368.56
2022-09-15T08:15:27.433Z,99370.72
2022-09-15T08:18:30.565Z,99363.44
2022-09-15T08:21:33.007Z,99377.72
2022-09-15T08:24:35.471Z,99381.94
2022-09-15T08:27:37.991Z,99380.06
2022-09-15T08:30:40.100Z,99374.00
2022-09-15T08:33:45.720Z,99369.53
2022-09-15T08:36:48.215Z,99363.41
2022-09-15T08:39:51.614Z,99362.47
2022-09-15T08:42:58.300Z,99355.00
2022-09-15T08:46:06.102Z,99358.06
2022-09-15T08:49:23.479Z,99349.41
2022-09-15T08:52:54.256Z,99350.88
2022-09-15T08:56:00.370Z,99346.81
2022-09-15T08:59:05.613Z,99350.38
2022-09-15T09:02:26.800Z,99340.66
2022-09-15T09:06:05.598Z,99336.22
2022-09-15T09:09:48.498Z,99325.25
2022-09-15T09:13:30.970Z,99323.44
2022-09-15T09:17:10.029Z,99319.44
2022-09-15T09:20:54.520Z,99318.22
2022-09-15T09:24:03.872Z,99301.00
2022-09-15T09:27:13.195Z,99288.81
2022-09-15T09:30:18.984Z,99293.53
2022-09-15T09:33:47.923Z,99298.28
2022-09-15T09:37:09.167Z,99305.75
2022-09-15T09:40:15.781Z,99303.38
2022-09-15T09:43:18.689Z,99303.75
2022-09-15T09:46:22.157Z,99304.41
2022-09-15T09:49:26.385Z,99290.28
2022-09-15T09:52:39.485Z,99284.63
2022-09-15T09:55:46.145Z,99284.59
2022-09-15T09:58:49.090Z,99280.72
2022-09-15T10:02:11.467Z,99269.16
2022-09-15T10:05:19.664Z,99266.50
2022-09-15T10:08:21.794Z,99262.03
2022-09-15T10:11:46.159Z,99251.25
2022-09-15T10:14:52.646Z,99240.88
2022-09-15T10:17:56.960Z,99238.56
2022-09-15T10:21:00.818Z,99237.56
2022-09-15T10:24:34.659Z,99230.09
2022-09-15T10:27:37.371Z,99214.97
2022-09-15T10:31:22.818Z,99206.00
2022-09-15T10:34:40.996Z,99203.25
2022-09-15T10:37:45.377Z,99200.72
2022-09-15T10:41:18.403Z,99204.12
2022-09-15T10:44:59.436Z,99206.94
2022-09-15T10:48:37.041Z,99212.47
2022-09-15T10:52:08.233Z,99209.53
2022-09-15T10:55:53.034Z,99194.94
2022-09-15T10:59:34.628Z,99210.41
2022-09-15T11:03:28.702Z,99210.63
2022-09-15T11:11:28.226Z,99220.00
2022-09-15T11:23:49.226Z,99213.69
2022-09-15T11:26:58.105Z,99209.69
2022-09-15T11:30:24.529Z,99211.59
2022-09-15T11:34:03.978Z,99198.97
2022-09-15T11:37:25.599Z,99208.44
2022-09-15T11:40:33.691Z,99193.31
2022-09-15T11:43:45.983Z,99183.81
2022-09-15T11:47:28.280Z,99169.31
2022-09-15T12:50:39.200Z,99085.34
2022-09-15T12:54:19.268Z,99062.31
2022-09-15T12:57:25.685Z,99061.53
2022-09-15T16:48:34.527Z,99097.66
2022-09-15T16:51:37.816Z,99105.78
2022-09-15T16:54:40.879Z,99110.19
2022-09-15T16:57:44.000Z,99112.03
2022-09-15T17:00:48.497Z,99114.50
2022-09-15T17:03:51.748Z,99117.97
2022-09-15T17:06:54.685Z,99131.09
2022-09-15T17:09:57.901Z,99127.16
2022-09-15T17:13:01.702Z,99128.12
2022-09-15T17:16:04.945Z,99144.88
2022-09-15T17:19:07.966Z,99135.09
2022-09-15T17:22:11.397Z,99124.94
2022-09-15T17:25:22.195Z,99124.78
2022-09-15T17:28:30.598Z,99119.16
2022-09-15T17:31:34.946Z,99104.97
2022-09-15T17:34:38.298Z,99106.78
2022-09-15T17:37:41.193Z,99105.78
2022-09-15T17:40:44.582Z,99087.50
2022-09-15T17:43:47.766Z,99093.41
2022-09-15T17:46:51.683Z,99097.25
2022-09-15T17:49:55.052Z,99101.41
2022-09-15T17:52:59.129Z,99100.75
2022-09-15T17:56:02.194Z,99098.62
2022-09-15T17:59:05.629Z,99105.78
2022-09-15T18:02:19.599Z,99098.34
2022-09-15T18:05:26.822Z,99104.88
2022-09-15T18:08:29.664Z,99103.75
2022-09-15T18:11:33.133Z,99107.75
2022-09-15T18:14:36.152Z,99114.66
2022-09-15T18:17:39.491Z,99123.09
2022-09-15T18:20:42.991Z,99113.31
2022-09-15T18:23:46.142Z,99114.94
2022-09-15T18:26:49.261Z,99125.56
2022-09-15T18:29:52.126Z,99135.00
2022-09-15T18:32:54.324Z,99131.81
2022-09-15T18:35:59.003Z,99129.34
2022-09-15T18:39:01.223Z,99140.97
2022-09-15T18:42:03.935Z,99133.00
2022-09-15T18:45:07.836Z,99135.81
2022-09-15T18:48:12.846Z,99131.69
2022-09-15T18:51:23.885Z,99129.69
2022-09-15T18:54:34.703Z,99130.81
2022-09-15T18:57:38.886Z,99134.88
2022-09-15T19:00:41.879Z,99147.19
2022-09-15T19:03:44.337Z,99154.50
2022-09-15T19:06:46.850Z,99148.72
2022-09-15T19:09:56.206Z,99158.47
2022-09-15T19:12:59.017Z,99162.13
2022-09-15T19:16:06.097Z,99151.72
2022-09-15T19:19:08.629Z,99136.16
2022-09-15T19:22:10.808Z,99147.59
2022-09-15T19:25:13.741Z,99148.75
2022-09-15T19:28:15.899Z,99153.03
2022-09-15T19:31:18.441Z,99155.00
2022-09-15T19:34:20.909Z,99169.75
2022-09-15T19:37:23.590Z,99171.59
2022-09-15T19:40:25.876Z,99168.47
2022-09-15T19:43:28.804Z,99168.47
2022-09-15T19:46:31.561Z,99170.66
2022-09-15T19:49:34.143Z,99168.47
2022-09-15T19:52:36.330Z,99182.22
2022-09-15T19:55:38.808Z,99182.56
2022-09-15T19:58:41.070Z,99181.59
2022-09-15T20:01:43.520Z,99187.19
2022-09-15T20:04:46.572Z,99189.34
2022-09-15T20:07:48.903Z,99183.88
2022-09-15T20:10:51.767Z,99192.81
2022-09-15T20:13:54.615Z,99186.88
2022-09-15T20:17:00.380Z,99190.22
2022-09-15T20:20:03.769Z,99204.31
2022-09-15T20:23:06.276Z,99204.31
2022-09-15T20:26:10.815Z,99208.25
2022-09-15T20:29:13.506Z,99208.09
2022-09-15T20:32:15.669Z,99207.75
2022-09-15T20:35:18.226Z,99208.44
2022-09-15T20:38:21.036Z,99205.28
2022-09-15T20:41:26.393Z,99219.06
2022-09-15T20:44:28.540Z,99226.50
2022-09-15T20:47:31.026Z,99226.47
2022-09-15T20:50:33.155Z,99231.97
2022-09-15T20:53:36.556Z,99244.22
2022-09-15T20:56:38.738Z,99245.03
2022-09-15T20:59:41.194Z,99241.69
2022-09-15T21:02:43.413Z,99242.88
2022-09-15T21:05:46.084Z,99241.88
2022-09-15T21:08:49.072Z,99250.81
2022-09-15T21:11:53.581Z,99255.78
2022-09-15T21:14:57.873Z,99249.84
2022-09-15T21:18:01.676Z,99234.88
2022-09-15T21:21:07.316Z,99247.34
2022-09-15T21:24:10.047Z,99233.66
2022-09-15T21:27:27.547Z,99239.81
2022-09-15T21:30:30.013Z,99241.59
2022-09-15T21:33:32.867Z,99240.09
2022-09-15T21:36:35.851Z,99241.00
2022-09-15T21:39:37.947Z,99231.69
2022-09-15T21:42:40.460Z,99243.94
2022-09-15T21:45:42.757Z,99248.25
2022-09-15T21:48:47.329Z,99250.12
2022-09-15T21:51:49.710Z,99252.44
2022-09-15T21:54:52.687Z,99274.66
2022-09-15T21:57:55.061Z,99285.75
2022-09-15T22:00:57.567Z,99288.94
2022-09-15T22:04:02.217Z,99288.94
2022-09-15T22:07:04.438Z,99299.22
2022-09-15T22:10:07.448Z,99310.66
2022-09-15T22:13:11.726Z,99325.41
2022-09-15T22:16:17.922Z,99320.78
2022-09-15T22:19:20.197Z,99317.47
2022-09-15T22:22:23.624Z,99315.97
2022-09-15T22:25:26.481Z,99315.34
2022-09-15T22:28:29.059Z,99313.31
2022-09-15T22:31:31.460Z,99314.19
2022-09-15T22:34:33.988Z,99321.13
2022-09-15T22:37:36.270Z,99320.13
2022-09-15T22:40:38.875Z,99325.94
2022-09-15T22:43:42.421Z,99322.47
2022-09-15T22:46:44.889Z,99340.03
2022-09-15T22:49:47.144Z,99348.66
2022-09-15T22:52:50.868Z,99349.28
2022-09-15T22:56:04.973Z,99352.47
2022-09-15T22:59:07.487Z,99369.37
2022-09-15T23:02:09.951Z,99379.78
2022-09-15T23:05:12.778Z,99368.22
2022-09-15T23:08:15.129Z,99393.38
2022-09-15T23:11:17.667Z,99389.09
2022-09-15T23:14:19.826Z,99399.69
2022-09-15T23:17:22.867Z,99402.69
2022-09-15T23:20:25.066Z,99404.84
2022-09-15T23:23:28.224Z,99407.16
2022-09-15T23:26:30.435Z,99398.03
2022-09-15T23:29:33.375Z,99394.72
2022-09-15T23:32:35.670Z,99403.16
2022-09-15T23:35:38.127Z,99395.22
2022-09-15T23:38:42.747Z,99402.69
2022-09-15T23:41:45.221Z,99402.03
2022-09-15T23:44:47.384Z,99402.34
2022-09-15T23:47:49.946Z,99403.50
2022-09-15T23:50:52.281Z,99407.16
2022-09-15T23:53:55.218Z,99403.31
2022-09-15T23:56:57.403Z,99394.72
2022-09-15T23:59:59.888Z,99396.88
